createdAt,value
2023-02-08T00:01:15.236Z,102763.97
2023-02-08T00:03:42.271Z,102772.47
2023-02-08T00:06:10.256Z,102774.91
2023-02-08T00:08:38.254Z,102779.03
2023-02-08T00:11:06.426Z,102782.13
2023-02-08T00:13:34.493Z,102779.28
2023-02-08T00:16:01.489Z,102779.41
2023-02-08T00:18:28.406Z,102781.19
2023-02-08T00:20:57.491Z,102784.56
2023-02-08T00:23:25.597Z,102780.06
2023-02-08T00:25:52.425Z,102775.28
2023-02-08T00:28:20.097Z,102774.16
2023-02-08T00:30:47.125Z,102773.47
2023-02-08T00:33:14.146Z,102778.75
2023-02-08T00:35:42.379Z,102771.19
2023-02-08T00:38:09.318Z,102780.69
2023-02-08T00:40:36.329Z,102779.03
2023-02-08T00:43:03.299Z,102775.53
2023-02-08T00:45:30.218Z,102783.13
2023-02-08T00:47:57.081Z,102782.84
2023-02-08T00:50:24.064Z,102786.97
2023-02-08T00:52:51.099Z,102785.69
2023-02-08T00:55:18.069Z,102788.91
2023-02-08T00:57:44.952Z,102791.47
2023-02-08T01:00:12.453Z,102791.72
2023-02-08T01:02:40.112Z,102796.28
2023-02-08T01:05:07.655Z,102786.34
2023-02-08T01:07:37.634Z,102791.63
2023-02-08T01:10:07.022Z,102780.44
2023-02-08T01:12:33.938Z,102779.53
2023-02-08T01:15:00.901Z,102778.66
2023-02-08T01:17:27.841Z,102782.00
2023-02-08T01:19:54.785Z,102789.06
2023-02-08T01:22:21.611Z,102793.84
2023-02-08T01:24:48.456Z,102796.53
2023-02-08T01:27:15.349Z,102803.47
2023-02-08T01:29:42.257Z,102803.59
2023-02-08T01:32:09.129Z,102804.94
2023-02-08T01:34:36.091Z,102808.53
2023-02-08T01:37:03.015Z,102815.09
2023-02-08T01:39:29.895Z,102808.66
2023-02-08T01:41:56.822Z,102812.25
2023-02-08T01:45:01.334Z,102810.59
2023-02-08T01:47:28.428Z,102813.78
2023-02-08T01:49:56.305Z,102812.09
2023-02-08T01:52:28.971Z,102816.87
2023-02-08T01:55:03.001Z,102820.63
2023-02-08T01:57:30.195Z,102810.97
2023-02-08T02:00:05.218Z,102820.47
2023-02-08T02:02:33.837Z,102817.53
2023-02-08T02:05:01.828Z,102822.94
2023-02-08T02:07:31.218Z,102814.56
2023-02-08T02:10:29.466Z,102814.16
2023-02-08T02:13:02.563Z,102825.00
2023-02-08T02:15:29.702Z,102823.19
2023-02-08T02:17:56.937Z,102817.25
2023-02-08T02:20:48.105Z,102833.53
2023-02-08T02:23:36.308Z,102829.44
2023-02-08T02:26:29.765Z,102824.69
2023-02-08T02:29:20.320Z,102832.03
2023-02-08T02:31:59.255Z,102832.69
2023-02-08T02:34:46.928Z,102833.72
2023-02-08T02:37:41.851Z,102839.03
2023-02-08T02:40:21.659Z,102835.03
2023-02-08T02:43:24.267Z,102834.41
2023-02-08T02:46:07.332Z,102832.47
2023-02-08T02:48:52.813Z,102830.94
2023-02-08T02:51:33.150Z,102824.84
2023-02-08T02:54:09.877Z,102828.31
2023-02-08T02:56:45.309Z,102833.75
2023-02-08T02:59:17.222Z,102828.72
2023-02-08T03:01:45.551Z,102829.13
2023-02-08T03:04:35.617Z,102827.31
2023-02-08T03:07:20.760Z,102830.69
2023-02-08T03:10:10.562Z,102830.28
2023-02-08T03:12:54.027Z,102839.06
2023-02-08T03:15:44.280Z,102838.00
2023-02-08T03:18:46.383Z,102839.13
2023-02-08T03:21:29.836Z,102834.00
2023-02-08T03:24:19.800Z,102835.81
2023-02-08T03:27:06.943Z,102831.81
2023-02-08T03:29:41.965Z,102834.50
2023-02-08T03:32:17.858Z,102845.47
2023-02-08T03:34:58.671Z,102847.03
2023-02-08T03:37:34.235Z,102845.59
2023-02-08T03:40:09.452Z,102845.09
2023-02-08T03:42:47.460Z,102834.28
2023-02-08T03:45:24.280Z,102846.22
2023-02-08T03:47:53.418Z,102852.16
2023-02-08T03:50:22.865Z,102842.53
2023-02-08T03:52:52.493Z,102855.47
2023-02-08T03:55:21.978Z,102857.03
2023-02-08T03:57:55.692Z,102847.69
2023-02-08T04:00:23.815Z,102854.25
2023-02-08T04:03:05.932Z,102856.81
2023-02-08T04:05:33.554Z,102859.22
2023-02-08T04:08:00.881Z,102847.47
2023-02-08T04:10:28.014Z,102838.44
2023-02-08T04:12:54.939Z,102850.31
2023-02-08T04:15:22.218Z,102864.19
2023-02-08T04:17:49.198Z,102862.22
2023-02-08T04:20:16.115Z,102849.41
2023-02-08T04:22:43.092Z,102851.00
2023-02-08T04:25:11.022Z,102850.00
2023-02-08T04:27:38.382Z,102845.69
2023-02-08T04:30:05.938Z,102852.69
2023-02-08T04:32:32.820Z,102853.72
2023-02-08T04:35:00.056Z,102859.12
2023-02-08T04:37:27.024Z,102855.50
2023-02-08T04:39:53.896Z,102850.09
2023-02-08T04:42:20.786Z,102848.16
2023-02-08T04:44:47.846Z,102849.31
2023-02-08T04:47:14.751Z,102846.44
2023-02-08T04:49:41.697Z,102848.94
2023-02-08T04:52:08.571Z,102845.34
2023-02-08T04:54:35.514Z,102842.97
2023-02-08T04:57:02.464Z,102847.56
2023-02-08T04:59:29.552Z,102856.41
2023-02-08T05:01:56.533Z,102851.91
2023-02-08T05:04:23.511Z,102848.44
2023-02-08T05:06:50.376Z,102841.56
2023-02-08T05:09:17.275Z,102846.94
2023-02-08T05:11:45.051Z,102854.25
2023-02-08T05:14:11.900Z,102846.19
2023-02-08T05:16:38.853Z,102861.06
2023-02-08T05:19:05.812Z,102857.37
2023-02-08T05:21:32.712Z,102862.34
2023-02-08T05:23:59.548Z,102859.81
2023-02-08T05:26:26.418Z,102853.06
2023-02-08T05:28:53.344Z,102857.94
2023-02-08T05:31:23.245Z,102862.72
2023-02-08T05:33:51.662Z,102859.38
2023-02-08T05:36:19.896Z,102854.06
2023-02-08T05:38:46.845Z,102848.78
2023-02-08T05:41:13.790Z,102859.22
2023-02-08T05:43:40.695Z,102857.78
2023-02-08T05:46:08.259Z,102869.09
2023-02-08T05:48:35.772Z,102872.88
2023-02-08T05:51:02.785Z,102862.50
2023-02-08T05:53:30.161Z,102872.16
2023-02-08T05:55:58.314Z,102872.75
2023-02-08T05:58:26.142Z,102879.75
2023-02-08T06:00:54.895Z,102886.41
2023-02-08T06:03:21.944Z,102892.06
2023-02-08T06:05:49.068Z,102893.63
2023-02-08T06:08:16.138Z,102901.13
2023-02-08T06:10:43.430Z,102895.50
2023-02-08T06:13:10.398Z,102882.72
2023-02-08T06:15:37.443Z,102884.22
2023-02-08T06:18:04.517Z,102881.94
2023-02-08T06:20:31.465Z,102883.50
2023-02-08T06:22:58.577Z,102876.16
2023-02-08T06:25:25.702Z,102880.66
2023-02-08T06:27:52.851Z,102885.69
2023-02-08T06:30:19.789Z,102884.66
2023-02-08T06:32:47.091Z,102895.75
2023-02-08T06:35:14.389Z,102900.13
2023-02-08T06:37:41.837Z,102901.72
2023-02-08T06:40:11.062Z,102899.22
2023-02-08T07:38:55.405Z,102925.63
2023-02-08T08:16:54.447Z,102965.31
2023-02-08T08:31:03.524Z,102985.72
2023-02-08T08:33:36.616Z,102983.88
2023-02-08T08:36:04.613Z,102976.56
2023-02-08T08:39:48.021Z,102979.88
2023-02-08T08:59:39.094Z,102991.00
2023-02-08T09:02:06.097Z,102998.22
2023-02-08T09:04:33.112Z,102998.91
2023-02-08T09:07:00.149Z,103002.00
2023-02-08T09:09:27.096Z,103003.37
2023-02-08T09:11:54.042Z,102999.97
2023-02-08T09:14:21.206Z,102998.16
2023-02-08T09:16:48.512Z,103006.84
2023-02-08T09:19:16.420Z,103007.41
2023-02-08T09:21:43.973Z,103002.91
2023-02-08T09:24:11.087Z,103009.03
2023-02-08T09:26:38.935Z,103011.91
2023-02-08T09:29:06.983Z,103012.78
2023-02-08T09:31:38.076Z,103016.81
2023-02-08T09:34:06.842Z,103013.81
2023-02-08T09:36:36.516Z,103006.31
2023-02-08T09:39:15.776Z,103011.41
2023-02-08T09:42:17.607Z,103012.50
2023-02-08T09:45:03.159Z,103008.56
2023-02-08T09:47:37.321Z,103010.97
2023-02-08T09:50:29.849Z,103014.59
2023-02-08T09:53:24.157Z,103010.50
2023-02-08T09:56:01.730Z,103004.53
2023-02-08T09:58:42.227Z,103009.87
2023-02-08T10:01:36.576Z,103007.28
2023-02-08T10:04:17.426Z,103011.75
2023-02-08T10:06:55.190Z,103005.28
2023-02-08T10:09:32.604Z,102997.84
2023-02-08T10:12:29.461Z,103000.66
2023-02-08T10:17:10.561Z,102998.03
2023-02-08T10:19:13.572Z,102983.91
2023-02-08T10:22:12.485Z,102983.09
2023-02-08T10:25:12.193Z,102973.97
2023-02-08T10:28:06.194Z,102965.97
2023-02-08T10:30:36.085Z,102963.94
2023-02-08T10:33:43.109Z,102961.13
2023-02-08T10:36:43.650Z,102950.50
2023-02-08T10:39:21.676Z,102946.41
2023-02-08T10:41:51.994Z,102948.37
2023-02-08T10:44:31.363Z,102946.03
2023-02-08T10:47:10.493Z,102940.91
2023-02-08T10:49:56.005Z,102934.63
2023-02-08T10:52:25.034Z,102944.53
2023-02-08T10:54:52.860Z,102941.03
2023-02-08T10:57:28.312Z,102954.31
2023-02-08T11:00:03.628Z,102948.22
2023-02-08T11:02:42.606Z,102942.41
2023-02-08T11:05:13.522Z,102951.28
2023-02-08T11:07:44.489Z,102944.59
2023-02-08T11:10:22.775Z,102946.28
2023-02-08T11:13:04.146Z,102937.78
2023-02-08T11:15:40.378Z,102950.62
2023-02-08T11:18:20.752Z,102945.94
2023-02-08T11:20:54.314Z,102940.16
2023-02-08T11:23:31.806Z,102940.88
2023-02-08T11:26:17.567Z,102952.53
2023-02-08T11:28:45.461Z,102957.16
2023-02-08T11:31:20.857Z,102945.34
2023-02-08T11:34:09.806Z,102933.88
2023-02-08T11:36:43.379Z,102941.53
2023-02-08T11:39:41.064Z,102941.59
2023-02-08T11:42:18.238Z,102923.47
2023-02-08T11:44:46.116Z,102927.84
2023-02-08T11:47:20.452Z,102926.59
2023-02-08T11:50:34.465Z,102924.06
2023-02-08T11:53:21.035Z,102926.91
2023-02-08T11:56:08.082Z,102905.56
2023-02-08T11:58:35.308Z,102911.31
2023-02-08T12:01:07.384Z,102916.75
2023-02-08T12:03:40.423Z,102912.00
2023-02-08T12:06:40.777Z,102913.97
2023-02-08T12:09:33.845Z,102916.16
2023-02-08T12:12:41.692Z,102916.34
2023-02-08T12:15:57.917Z,102914.56
2023-02-08T12:18:37.236Z,102919.38
2023-02-08T12:21:22.296Z,102912.34
2023-02-08T12:23:53.617Z,102905.06
2023-02-08T12:26:59.823Z,102900.31
2023-02-08T12:29:47.655Z,102900.53
2023-02-08T12:32:30.141Z,102902.16
2023-02-08T12:35:06.658Z,102895.81
2023-02-08T12:38:18.406Z,102899.47
2023-02-08T12:40:55.665Z,102891.22
2023-02-08T12:43:41.284Z,102885.69
2023-02-08T12:46:37.619Z,102891.28
2023-02-08T12:49:14.067Z,102885.22
2023-02-08T12:52:14.834Z,102878.03
2023-02-08T12:54:54.728Z,102882.62
2023-02-08T12:57:23.456Z,102879.69
2023-02-08T12:59:59.204Z,102881.69
2023-02-08T13:02:35.502Z,102878.25
2023-02-08T13:05:09.705Z,102874.06
2023-02-08T13:07:42.719Z,102876.41
2023-02-08T13:10:28.119Z,102872.28
2023-02-08T13:13:14.391Z,102878.88
2023-02-08T13:16:15.794Z,102885.50
2023-02-08T13:18:48.206Z,102875.94
2023-02-08T13:21:26.703Z,102874.97
2023-02-08T13:23:53.912Z,102880.50
2023-02-08T13:26:38.160Z,102895.06
2023-02-08T13:29:05.575Z,102877.72
2023-02-08T13:31:41.664Z,102889.81
2023-02-08T13:34:36.528Z,102881.31
2023-02-08T13:37:16.565Z,102891.22
2023-02-08T13:39:59.529Z,102884.37
2023-02-08T13:42:35.315Z,102885.66
2023-02-08T13:45:04.852Z,102883.50
2023-02-08T13:47:43.437Z,102881.94
2023-02-08T13:50:52.612Z,102884.06
2023-02-08T13:53:39.896Z,102880.81
2023-02-08T13:56:12.025Z,102887.00
2023-02-08T13:58:48.408Z,102882.94
2023-02-08T14:01:22.863Z,102886.09
2023-02-08T14:04:08.895Z,102883.66
2023-02-08T14:06:48.220Z,102878.56
2023-02-08T14:09:34.200Z,102879.66
2023-02-08T14:12:05.359Z,102875.53
2023-02-08T14:14:39.384Z,102874.84
2023-02-08T14:17:23.409Z,102876.75
2023-02-08T14:20:00.335Z,102861.41
2023-02-08T14:22:33.908Z,102875.19
2023-02-08T14:25:18.810Z,102871.56
2023-02-08T14:28:03.198Z,102866.06
2023-02-08T14:30:39.427Z,102859.94
2023-02-08T14:33:09.196Z,102857.72
2023-02-08T14:35:39.955Z,102852.94
2023-02-08T14:38:19.547Z,102848.94
2023-02-08T14:40:59.329Z,102845.62
2023-02-08T14:43:40.640Z,102847.16
2023-02-08T14:46:44.763Z,102849.00
2023-02-08T14:49:26.436Z,102848.62
2023-02-08T14:52:43.426Z,102850.06
2023-02-08T14:55:20.552Z,102849.97
2023-02-08T14:57:53.203Z,102842.44
2023-02-08T15:04:02.075Z,102846.41
2023-02-08T15:06:40.677Z,102852.22
2023-02-08T15:09:18.342Z,102855.75
2023-02-08T15:12:23.343Z,102857.63
2023-02-08T15:14:52.945Z,102854.50
2023-02-08T15:17:25.930Z,102865.53
2023-02-08T15:19:56.299Z,102860.84
2023-02-08T15:22:26.443Z,102855.84
2023-02-08T15:25:16.730Z,102858.38
2023-02-08T15:27:49.998Z,102864.56
2023-02-08T15:30:36.784Z,102861.72
2023-02-08T15:33:14.963Z,102873.78
2023-02-08T15:35:46.627Z,102864.59
2023-02-08T15:38:21.010Z,102866.56
2023-02-08T15:41:07.065Z,102870.13
2023-02-08T15:43:35.719Z,102869.50
2023-02-08T15:46:18.262Z,102869.22
2023-02-08T15:48:46.927Z,102870.06
2023-02-08T15:51:16.352Z,102873.22
2023-02-08T15:53:45.687Z,102874.50
2023-02-08T15:56:34.274Z,102881.59
2023-02-08T15:59:07.177Z,102881.09
2023-02-08T16:01:34.630Z,102887.22
2023-02-08T16:04:14.964Z,102890.00
2023-02-08T16:06:54.177Z,102884.50
2023-02-08T16:09:27.382Z,102888.19
2023-02-08T16:11:58.080Z,102880.91
2023-02-08T16:14:29.369Z,102883.03
2023-02-08T16:16:58.453Z,102883.25
2023-02-08T16:19:37.383Z,102885.97
2023-02-08T16:22:27.491Z,102877.84
2023-02-08T16:24:56.145Z,102885.59
2023-02-08T16:27:30.061Z,102894.13
2023-02-08T16:29:57.776Z,102890.31
2023-02-08T16:32:29.410Z,102892.28
2023-02-08T16:34:56.742Z,102902.31
2023-02-08T16:37:33.596Z,102900.72
2023-02-08T16:40:02.907Z,102901.09
2023-02-08T16:42:39.008Z,102904.66
2023-02-08T16:45:12.924Z,102909.06
2023-02-08T16:47:58.439Z,102904.41
2023-02-08T16:50:28.621Z,102913.81
2023-02-08T16:53:04.028Z,102917.09
2023-02-08T16:55:33.843Z,102918.78
2023-02-08T16:58:01.204Z,102918.13
2023-02-08T17:00:37.886Z,102911.41
2023-02-08T17:03:04.866Z,102917.78
2023-02-08T17:05:37.345Z,102921.44
2023-02-08T17:08:10.133Z,102913.22
2023-02-08T17:10:37.477Z,102911.03
2023-02-08T17:13:20.850Z,102913.84
2023-02-08T17:15:51.236Z,102908.66
2023-02-08T17:18:23.829Z,102905.97
2023-02-08T17:20:58.266Z,102904.16
2023-02-08T17:23:31.604Z,102907.59
2023-02-08T17:25:58.885Z,102904.03
2023-02-08T17:28:27.604Z,102909.94
2023-02-08T17:31:00.006Z,102908.16
2023-02-08T17:33:29.648Z,102909.16
2023-02-08T17:35:57.449Z,102907.97
2023-02-08T17:38:24.388Z,102914.84
2023-02-08T17:40:51.315Z,102914.47
2023-02-08T17:43:19.217Z,102924.25
2023-02-08T17:45:46.536Z,102919.88
2023-02-08T17:48:13.761Z,102919.44
2023-02-08T17:50:48.141Z,102928.34
2023-02-08T17:53:15.733Z,102928.56
2023-02-08T17:55:44.115Z,102934.63
2023-02-08T17:58:11.720Z,102931.50
2023-02-08T18:00:38.906Z,102937.69
2023-02-08T18:03:05.943Z,102939.31
2023-02-08T18:05:32.961Z,102944.13
2023-02-08T18:08:00.186Z,102942.22
2023-02-08T18:10:28.509Z,102941.97
2023-02-08T18:12:56.044Z,102937.41
2023-02-08T18:15:24.284Z,102947.06
2023-02-08T18:17:52.885Z,102944.34
2023-02-08T18:20:19.896Z,102946.31
2023-02-08T18:22:46.958Z,102936.06
2023-02-08T18:25:14.591Z,102946.06
2023-02-08T18:27:41.654Z,102950.00
2023-02-08T18:30:09.786Z,102953.44
2023-02-08T18:32:36.773Z,102957.41
2023-02-08T18:35:04.647Z,102961.41
2023-02-08T18:37:32.420Z,102962.22
2023-02-08T18:40:00.293Z,102962.91
2023-02-08T18:42:27.489Z,102966.41
2023-02-08T18:44:54.572Z,102964.06
2023-02-08T18:47:21.742Z,102961.22
2023-02-08T18:49:53.514Z,102958.66
2023-02-08T18:52:20.456Z,102959.81
2023-02-08T18:54:47.383Z,102958.56
2023-02-08T18:57:14.466Z,102957.09
2023-02-08T18:59:41.506Z,102957.31
2023-02-08T19:02:11.292Z,102962.03
2023-02-08T19:04:39.156Z,102960.03
2023-02-08T19:07:07.322Z,102949.22
2023-02-08T19:09:39.154Z,102950.56
2023-02-08T19:12:07.819Z,102959.38
2023-02-08T19:14:34.868Z,102954.72
2023-02-08T19:17:02.570Z,102954.88
2023-02-08T19:19:29.727Z,102951.81
2023-02-08T19:21:56.753Z,102957.00
2023-02-08T19:24:23.664Z,102956.28
2023-02-08T19:26:50.943Z,102956.44
2023-02-08T19:29:22.027Z,102950.44
2023-02-08T19:31:50.434Z,102952.81
2023-02-08T19:34:18.855Z,102956.19
2023-02-08T19:36:49.826Z,102958.31
2023-02-08T19:39:19.916Z,102955.84
2023-02-08T19:41:48.361Z,102942.34
2023-02-08T19:44:18.431Z,102951.81
2023-02-08T19:46:53.852Z,102951.09
2023-02-08T19:49:23.557Z,102958.97
2023-02-08T19:51:52.141Z,102954.81
2023-02-08T19:54:20.681Z,102950.84
2023-02-08T19:56:50.524Z,102957.03
2023-02-08T19:59:25.943Z,102953.09
2023-02-08T20:01:53.942Z,102959.78
2023-02-08T20:04:21.688Z,102959.22
2023-02-08T20:06:53.828Z,102956.53
2023-02-08T20:09:21.635Z,102956.31
2023-02-08T20:11:56.836Z,102964.59
2023-02-08T20:14:25.359Z,102967.12
2023-02-08T20:16:52.431Z,102965.50
2023-02-08T20:19:19.443Z,102968.06
2023-02-08T20:21:46.668Z,102972.78
2023-02-08T20:24:14.173Z,102965.06
2023-02-08T20:26:43.007Z,102962.72
2023-02-08T20:29:11.100Z,102972.53
2023-02-08T20:31:41.141Z,102981.09
2023-02-08T20:34:10.238Z,102973.44
2023-02-08T20:36:43.979Z,102978.22
2023-02-08T20:39:14.792Z,102969.22
2023-02-08T20:41:44.532Z,102972.06
2023-02-08T20:44:12.737Z,102974.59
2023-02-08T20:46:43.400Z,102971.09
2023-02-08T20:49:11.983Z,102981.59
2023-02-08T20:51:38.946Z,102983.53
2023-02-08T20:54:06.602Z,102986.94
2023-02-08T20:56:36.978Z,102988.78
2023-02-08T20:59:09.321Z,102985.13
2023-02-08T21:01:37.043Z,102988.19
2023-02-08T21:04:05.568Z,102981.81
2023-02-08T21:06:35.271Z,102983.03
2023-02-08T21:09:11.414Z,102983.53
2023-02-08T21:11:39.677Z,102985.56
2023-02-08T21:14:08.228Z,102985.03
2023-02-08T21:16:35.200Z,102985.03
2023-02-08T21:19:02.499Z,102987.72
2023-02-08T21:21:29.542Z,102985.16
2023-02-08T21:23:58.049Z,102993.41
2023-02-08T21:26:26.161Z,102985.38
2023-02-08T21:28:54.629Z,102986.25
2023-02-08T21:31:23.988Z,102980.94
2023-02-08T21:33:51.579Z,102979.56
2023-02-08T21:36:24.849Z,102973.91
2023-02-08T21:38:52.903Z,102975.44
2023-02-08T21:41:26.036Z,102974.59
2023-02-08T21:43:58.928Z,102974.28
2023-02-08T21:46:27.998Z,102964.84
2023-02-08T21:49:15.177Z,102967.94
2023-02-08T21:52:00.727Z,102975.19
2023-02-08T21:54:29.995Z,102966.94
2023-02-08T21:56:59.353Z,102968.09
2023-02-08T21:59:27.211Z,102973.94
2023-02-08T22:01:54.194Z,102983.56
2023-02-08T22:04:21.457Z,102982.97
2023-02-08T22:06:49.176Z,102981.56
2023-02-08T22:09:21.080Z,102979.34
2023-02-08T22:11:48.878Z,102971.91
2023-02-08T22:14:16.348Z,102978.63
2023-02-08T22:16:43.402Z,102972.53
2023-02-08T22:19:11.395Z,102975.78
2023-02-08T22:21:38.317Z,102970.88
2023-02-08T22:24:05.363Z,102979.63
2023-02-08T22:26:32.248Z,102982.37
2023-02-08T22:28:59.248Z,102974.59
2023-02-08T22:31:26.266Z,102962.88
2023-02-08T22:33:53.821Z,102969.41
2023-02-08T22:36:21.433Z,102974.63
2023-02-08T22:38:48.418Z,102978.50
2023-02-08T22:41:17.322Z,102977.56
2023-02-08T22:43:45.349Z,102979.13
2023-02-08T22:46:13.162Z,102979.41
2023-02-08T22:48:40.903Z,102980.41
2023-02-08T22:51:15.188Z,102987.50
2023-02-08T22:53:42.201Z,102982.59
2023-02-08T22:56:09.780Z,102983.78
2023-02-08T22:58:36.814Z,102987.38
2023-02-08T23:01:03.764Z,102983.78
2023-02-08T23:03:30.731Z,102978.47
2023-02-08T23:05:57.619Z,102979.00
2023-02-08T23:08:24.486Z,102977.59
2023-02-08T23:10:58.851Z,102976.28
2023-02-08T23:13:26.179Z,102973.97
2023-02-08T23:15:53.063Z,102971.63
2023-02-08T23:18:20.188Z,102973.31
2023-02-08T23:20:47.327Z,102971.12
2023-02-08T23:23:14.834Z,102972.16
2023-02-08T23:25:42.541Z,102974.09
2023-02-08T23:28:11.824Z,102973.31
2023-02-08T23:30:40.908Z,102967.50
2023-02-08T23:33:08.252Z,102970.44
2023-02-08T23:35:35.358Z,102957.16
2023-02-08T23:38:02.346Z,102967.56
2023-02-08T23:40:29.277Z,102962.63
2023-02-08T23:42:56.151Z,102957.03
2023-02-08T23:45:23.090Z,102954.59
2023-02-08T23:47:50.222Z,102955.09
2023-02-08T23:50:17.160Z,102951.78
2023-02-08T23:52:44.140Z,102948.16
2023-02-08T23:55:11.126Z,102957.41
2023-02-08T23:57:38.660Z,102954.22
